sensor_id;sensor_type;location;lat;lon;timestamp;temperature;humidity
63537;DHT22;49686;51.880;5.632;2023-03-14T00:00:40;9.50;99.90
63537;DHT22;49686;51.880;5.632;2023-03-14T00:03:07;9.60;99.90
63537;DHT22;49686;51.880;5.632;2023-03-14T00:05:34;9.30;99.90
63537;DHT22;49686;51.880;5.632;2023-03-14T00:08:01;9.20;99.90
63537;DHT22;49686;51.880;5.632;2023-03-14T00:10:29;9.00;99.90
63537;DHT22;49686;51.880;5.632;2023-03-14T00:12:55;9.00;99.90
63537;DHT22;49686;51.880;5.632;2023-03-14T00:15:22;9.00;99.90
63537;DHT22;49686;51.880;5.632;2023-03-14T00:17:49;9.00;99.90
63537;DHT22;49686;51.880;5.632;2023-03-14T00:20:16;8.80;99.90
63537;DHT22;49686;51.880;5.632;2023-03-14T00:22:43;8.70;99.90
63537;DHT22;49686;51.880;5.632;2023-03-14T00:25:10;8.60;99.90
63537;DHT22;49686;51.880;5.632;2023-03-14T00:27:39;8.60;99.90
63537;DHT22;49686;51.880;5.632;2023-03-14T00:30:07;8.60;99.90
63537;DHT22;49686;51.880;5.632;2023-03-14T00:32:34;8.60;99.90
63537;DHT22;49686;51.880;5.632;2023-03-14T00:35:01;8.70;99.90
63537;DHT22;49686;51.880;5.632;2023-03-14T00:37:28;8.60;99.90
63537;DHT22;49686;51.880;5.632;2023-03-14T00:39:55;8.60;99.90
63537;DHT22;49686;51.880;5.632;2023-03-14T00:42:22;8.50;99.90
63537;DHT22;49686;51.880;5.632;2023-03-14T00:44:50;8.50;99.90
63537;DHT22;49686;51.880;5.632;2023-03-14T00:47:17;8.60;99.90
63537;DHT22;49686;51.880;5.632;2023-03-14T00:49:43;8.60;99.90
63537;DHT22;49686;51.880;5.632;2023-03-14T00:52:10;8.60;99.90
63537;DHT22;49686;51.880;5.632;2023-03-14T00:54:37;8.50;99.90
63537;DHT22;49686;51.880;5.632;2023-03-14T00:57:04;8.60;99.90
63537;DHT22;49686;51.880;5.632;2023-03-14T00:59:31;8.50;99.90
63537;DHT22;49686;51.880;5.632;2023-03-14T01:01:59;8.40;99.90
63537;DHT22;49686;51.880;5.632;2023-03-14T01:04:26;8.50;99.90
63537;DHT22;49686;51.880;5.632;2023-03-14T01:06:52;8.50;99.90
63537;DHT22;49686;51.880;5.632;2023-03-14T01:09:19;8.50;99.90
63537;DHT22;49686;51.880;5.632;2023-03-14T01:11:46;8.60;99.90
63537;DHT22;49686;51.880;5.632;2023-03-14T01:14:13;8.50;99.90
63537;DHT22;49686;51.880;5.632;2023-03-14T01:16:40;8.60;99.90
63537;DHT22;49686;51.880;5.632;2023-03-14T01:19:09;8.50;99.90
63537;DHT22;49686;51.880;5.632;2023-03-14T01:21:36;8.50;99.90
63537;DHT22;49686;51.880;5.632;2023-03-14T01:24:05;8.50;99.90
63537;DHT22;49686;51.880;5.632;2023-03-14T01:26:34;8.50;99.90
63537;DHT22;49686;51.880;5.632;2023-03-14T01:29:01;8.40;99.90
63537;DHT22;49686;51.880;5.632;2023-03-14T01:31:28;8.20;99.90
63537;DHT22;49686;51.880;5.632;2023-03-14T01:33:55;8.10;99.90
63537;DHT22;49686;51.880;5.632;2023-03-14T01:36:23;8.10;99.90
63537;DHT22;49686;51.880;5.632;2023-03-14T01:38:50;8.10;99.90
63537;DHT22;49686;51.880;5.632;2023-03-14T01:41:19;8.10;99.90
63537;DHT22;49686;51.880;5.632;2023-03-14T01:43:46;8.10;99.90
63537;DHT22;49686;51.880;5.632;2023-03-14T01:46:29;8.20;99.90
63537;DHT22;49686;51.880;5.632;2023-03-14T01:49:05;8.30;99.90
63537;DHT22;49686;51.880;5.632;2023-03-14T01:51:39;8.00;99.90
63537;DHT22;49686;51.880;5.632;2023-03-14T01:54:11;8.00;99.90
63537;DHT22;49686;51.880;5.632;2023-03-14T01:56:42;8.00;99.90
63537;DHT22;49686;51.880;5.632;2023-03-14T01:59:12;8.00;99.90
63537;DHT22;49686;51.880;5.632;2023-03-14T02:01:43;7.90;99.90
63537;DHT22;49686;51.880;5.632;2023-03-14T02:04:11;7.60;99.90
63537;DHT22;49686;51.880;5.632;2023-03-14T02:06:47;7.20;99.90
63537;DHT22;49686;51.880;5.632;2023-03-14T02:09:15;7.00;99.90
63537;DHT22;49686;51.880;5.632;2023-03-14T02:11:43;7.00;99.90
63537;DHT22;49686;51.880;5.632;2023-03-14T02:14:17;7.00;99.90
63537;DHT22;49686;51.880;5.632;2023-03-14T02:16:47;7.00;99.90
63537;DHT22;49686;51.880;5.632;2023-03-14T02:19:18;7.10;99.90
63537;DHT22;49686;51.880;5.632;2023-03-14T02:21:52;7.10;99.90
63537;DHT22;49686;51.880;5.632;2023-03-14T02:24:23;7.10;99.90
63537;DHT22;49686;51.880;5.632;2023-03-14T02:27:09;7.00;99.90
63537;DHT22;49686;51.880;5.632;2023-03-14T02:29:41;7.00;99.90
63537;DHT22;49686;51.880;5.632;2023-03-14T02:32:10;6.90;99.90
63537;DHT22;49686;51.880;5.632;2023-03-14T02:34:38;6.90;99.90
63537;DHT22;49686;51.880;5.632;2023-03-14T02:37:05;7.00;99.90
63537;DHT22;49686;51.880;5.632;2023-03-14T02:39:35;7.00;99.90
63537;DHT22;49686;51.880;5.632;2023-03-14T02:42:04;7.10;99.90
63537;DHT22;49686;51.880;5.632;2023-03-14T02:44:31;7.10;99.90
63537;DHT22;49686;51.880;5.632;2023-03-14T02:46:58;7.20;99.90
63537;DHT22;49686;51.880;5.632;2023-03-14T02:49:27;7.10;99.90
63537;DHT22;49686;51.880;5.632;2023-03-14T02:51:56;7.10;99.90
63537;DHT22;49686;51.880;5.632;2023-03-14T02:54:22;7.00;99.90
63537;DHT22;49686;51.880;5.632;2023-03-14T02:56:49;7.00;99.90
63537;DHT22;49686;51.880;5.632;2023-03-14T02:59:17;7.00;99.90
63537;DHT22;49686;51.880;5.632;2023-03-14T03:01:44;6.90;99.90
63537;DHT22;49686;51.880;5.632;2023-03-14T03:04:11;7.00;99.90
63537;DHT22;49686;51.880;5.632;2023-03-14T03:06:38;6.90;99.90
63537;DHT22;49686;51.880;5.632;2023-03-14T03:09:05;7.00;99.90
63537;DHT22;49686;51.880;5.632;2023-03-14T03:11:32;7.00;99.90
63537;DHT22;49686;51.880;5.632;2023-03-14T03:13:58;7.00;99.90
63537;DHT22;49686;51.880;5.632;2023-03-14T03:16:26;7.00;99.90
63537;DHT22;49686;51.880;5.632;2023-03-14T03:18:53;7.00;99.90
63537;DHT22;49686;51.880;5.632;2023-03-14T03:21:20;7.10;99.90
63537;DHT22;49686;51.880;5.632;2023-03-14T03:23:47;7.20;99.90
63537;DHT22;49686;51.880;5.632;2023-03-14T03:26:14;7.20;99.90
63537;DHT22;49686;51.880;5.632;2023-03-14T03:28:40;7.20;99.90
63537;DHT22;49686;51.880;5.632;2023-03-14T03:31:08;7.30;99.90
63537;DHT22;49686;51.880;5.632;2023-03-14T03:33:37;7.30;99.90
63537;DHT22;49686;51.880;5.632;2023-03-14T03:36:05;7.30;99.90
63537;DHT22;49686;51.880;5.632;2023-03-14T03:38:32;7.30;99.90
63537;DHT22;49686;51.880;5.632;2023-03-14T03:41:01;7.50;99.90
63537;DHT22;49686;51.880;5.632;2023-03-14T03:43:28;7.50;99.90
63537;DHT22;49686;51.880;5.632;2023-03-14T03:45:55;7.60;99.90
63537;DHT22;49686;51.880;5.632;2023-03-14T03:48:22;7.50;99.90
63537;DHT22;49686;51.880;5.632;2023-03-14T03:50:50;7.50;99.90
63537;DHT22;49686;51.880;5.632;2023-03-14T03:53:16;7.70;99.90
63537;DHT22;49686;51.880;5.632;2023-03-14T03:55:59;7.70;99.90
63537;DHT22;49686;51.880;5.632;2023-03-14T03:58:25;7.60;99.90
63537;DHT22;49686;51.880;5.632;2023-03-14T04:00:52;7.60;99.90
63537;DHT22;49686;51.880;5.632;2023-03-14T04:03:19;7.60;99.90
63537;DHT22;49686;51.880;5.632;2023-03-14T04:05:46;7.60;99.90
63537;DHT22;49686;51.880;5.632;2023-03-14T04:08:14;7.70;99.90
63537;DHT22;49686;51.880;5.632;2023-03-14T04:10:41;7.70;99.90
63537;DHT22;49686;51.880;5.632;2023-03-14T04:13:07;7.60;99.90
63537;DHT22;49686;51.880;5.632;2023-03-14T04:15:34;7.60;99.90
63537;DHT22;49686;51.880;5.632;2023-03-14T04:18:01;7.70;99.90
63537;DHT22;49686;51.880;5.632;2023-03-14T04:20:28;7.60;99.90
63537;DHT22;49686;51.880;5.632;2023-03-14T04:22:55;7.60;99.90
63537;DHT22;49686;51.880;5.632;2023-03-14T04:25:23;7.70;99.90
63537;DHT22;49686;51.880;5.632;2023-03-14T04:27:49;7.60;99.90
63537;DHT22;49686;51.880;5.632;2023-03-14T04:30:19;7.80;99.90
63537;DHT22;49686;51.880;5.632;2023-03-14T04:32:45;7.70;99.90
63537;DHT22;49686;51.880;5.632;2023-03-14T04:35:12;7.70;99.90
63537;DHT22;49686;51.880;5.632;2023-03-14T04:37:39;7.70;99.90
63537;DHT22;49686;51.880;5.632;2023-03-14T04:40:07;7.80;99.90
63537;DHT22;49686;51.880;5.632;2023-03-14T04:42:36;7.80;99.90
63537;DHT22;49686;51.880;5.632;2023-03-14T04:45:03;7.70;99.90
63537;DHT22;49686;51.880;5.632;2023-03-14T04:47:30;7.80;99.90
63537;DHT22;49686;51.880;5.632;2023-03-14T04:49:57;7.70;99.90
63537;DHT22;49686;51.880;5.632;2023-03-14T04:52:23;7.80;99.90
63537;DHT22;49686;51.880;5.632;2023-03-14T04:54:50;7.70;99.90
63537;DHT22;49686;51.880;5.632;2023-03-14T04:57:17;7.70;99.90
63537;DHT22;49686;51.880;5.632;2023-03-14T04:59:45;7.70;99.90
63537;DHT22;49686;51.880;5.632;2023-03-14T05:02:12;7.70;99.90
63537;DHT22;49686;51.880;5.632;2023-03-14T05:04:39;7.60;99.90
63537;DHT22;49686;51.880;5.632;2023-03-14T05:07:06;7.60;99.90
63537;DHT22;49686;51.880;5.632;2023-03-14T05:09:33;7.60;99.90
63537;DHT22;49686;51.880;5.632;2023-03-14T05:12:00;7.50;99.90
63537;DHT22;49686;51.880;5.632;2023-03-14T05:14:26;7.50;99.90
63537;DHT22;49686;51.880;5.632;2023-03-14T05:16:54;7.40;99.90
63537;DHT22;49686;51.880;5.632;2023-03-14T05:19:21;7.40;99.90
63537;DHT22;49686;51.880;5.632;2023-03-14T05:21:48;7.40;99.90
63537;DHT22;49686;51.880;5.632;2023-03-14T05:24:15;7.40;99.90
63537;DHT22;49686;51.880;5.632;2023-03-14T05:26:41;7.40;99.90
63537;DHT22;49686;51.880;5.632;2023-03-14T05:29:08;7.40;99.90
63537;DHT22;49686;51.880;5.632;2023-03-14T05:31:35;7.40;99.90
63537;DHT22;49686;51.880;5.632;2023-03-14T05:34:03;7.40;99.90
63537;DHT22;49686;51.880;5.632;2023-03-14T05:36:30;7.30;99.90
63537;DHT22;49686;51.880;5.632;2023-03-14T05:38:57;7.30;99.90
63537;DHT22;49686;51.880;5.632;2023-03-14T05:41:24;7.30;99.90
63537;DHT22;49686;51.880;5.632;2023-03-14T05:43:50;7.30;99.90
63537;DHT22;49686;51.880;5.632;2023-03-14T05:46:17;7.20;99.90
63537;DHT22;49686;51.880;5.632;2023-03-14T05:48:44;7.20;99.90
63537;DHT22;49686;51.880;5.632;2023-03-14T05:51:12;7.20;99.90
63537;DHT22;49686;51.880;5.632;2023-03-14T05:53:39;7.20;99.90
63537;DHT22;49686;51.880;5.632;2023-03-14T05:56:07;7.10;99.90
63537;DHT22;49686;51.880;5.632;2023-03-14T05:58:34;7.10;99.90
63537;DHT22;49686;51.880;5.632;2023-03-14T06:01:02;7.20;99.90
63537;DHT22;49686;51.880;5.632;2023-03-14T06:03:28;7.20;99.90
63537;DHT22;49686;51.880;5.632;2023-03-14T06:05:55;7.20;99.90
63537;DHT22;49686;51.880;5.632;2023-03-14T06:08:24;7.20;99.90
63537;DHT22;49686;51.880;5.632;2023-03-14T06:10:50;7.10;99.90
63537;DHT22;49686;51.880;5.632;2023-03-14T06:13:17;7.00;99.90
63537;DHT22;49686;51.880;5.632;2023-03-14T06:15:44;7.00;99.90
63537;DHT22;49686;51.880;5.632;2023-03-14T06:18:11;7.00;99.90
63537;DHT22;49686;51.880;5.632;2023-03-14T06:20:38;7.00;99.90
63537;DHT22;49686;51.880;5.632;2023-03-14T06:23:05;7.00;99.90
63537;DHT22;49686;51.880;5.632;2023-03-14T06:25:33;6.90;99.90
63537;DHT22;49686;51.880;5.632;2023-03-14T06:28:01;7.00;99.90
63537;DHT22;49686;51.880;5.632;2023-03-14T06:30:28;7.00;99.90
63537;DHT22;49686;51.880;5.632;2023-03-14T06:32:55;7.00;99.90
63537;DHT22;49686;51.880;5.632;2023-03-14T06:35:22;7.00;99.90
63537;DHT22;49686;51.880;5.632;2023-03-14T06:37:49;7.00;99.90
63537;DHT22;49686;51.880;5.632;2023-03-14T06:40:16;6.90;99.90
63537;DHT22;49686;51.880;5.632;2023-03-14T06:42:45;7.00;99.90
63537;DHT22;49686;51.880;5.632;2023-03-14T06:45:12;7.00;99.90
63537;DHT22;49686;51.880;5.632;2023-03-14T06:47:39;7.00;99.90
63537;DHT22;49686;51.880;5.632;2023-03-14T06:50:07;7.00;99.90
63537;DHT22;49686;51.880;5.632;2023-03-14T06:52:35;7.00;99.90
63537;DHT22;49686;51.880;5.632;2023-03-14T06:55:03;7.10;99.90
63537;DHT22;49686;51.880;5.632;2023-03-14T06:57:30;7.10;99.90
63537;DHT22;49686;51.880;5.632;2023-03-14T06:59:58;7.20;99.90
63537;DHT22;49686;51.880;5.632;2023-03-14T07:02:25;7.20;99.90
63537;DHT22;49686;51.880;5.632;2023-03-14T07:05:08;7.30;99.90
63537;DHT22;49686;51.880;5.632;2023-03-14T07:07:35;7.20;99.90
63537;DHT22;49686;51.880;5.632;2023-03-14T07:10:01;7.20;99.90
63537;DHT22;49686;51.880;5.632;2023-03-14T07:12:28;7.10;99.90
63537;DHT22;49686;51.880;5.632;2023-03-14T07:14:55;6.70;99.90
63537;DHT22;49686;51.880;5.632;2023-03-14T07:17:30;6.20;99.90
63537;DHT22;49686;51.880;5.632;2023-03-14T07:19:56;6.10;99.90
63537;DHT22;49686;51.880;5.632;2023-03-14T07:22:25;5.90;99.90
63537;DHT22;49686;51.880;5.632;2023-03-14T07:24:52;5.80;99.90
63537;DHT22;49686;51.880;5.632;2023-03-14T07:27:18;5.80;99.90
63537;DHT22;49686;51.880;5.632;2023-03-14T07:29:45;5.80;99.90
63537;DHT22;49686;51.880;5.632;2023-03-14T07:32:12;5.70;99.90
63537;DHT22;49686;51.880;5.632;2023-03-14T07:34:41;5.60;99.90
63537;DHT22;49686;51.880;5.632;2023-03-14T07:37:08;5.50;99.90
63537;DHT22;49686;51.880;5.632;2023-03-14T07:39:34;5.40;99.90
63537;DHT22;49686;51.880;5.632;2023-03-14T07:42:01;5.40;99.90
63537;DHT22;49686;51.880;5.632;2023-03-14T07:44:28;5.40;99.90
63537;DHT22;49686;51.880;5.632;2023-03-14T07:46:55;5.30;99.90
63537;DHT22;49686;51.880;5.632;2023-03-14T07:49:22;5.30;99.90
63537;DHT22;49686;51.880;5.632;2023-03-14T07:51:50;5.20;99.90
63537;DHT22;49686;51.880;5.632;2023-03-14T07:54:17;5.20;99.90
63537;DHT22;49686;51.880;5.632;2023-03-14T07:56:46;5.20;99.90
63537;DHT22;49686;51.880;5.632;2023-03-14T07:59:13;5.20;99.90
63537;DHT22;49686;51.880;5.632;2023-03-14T08:01:42;5.20;99.90
63537;DHT22;49686;51.880;5.632;2023-03-14T08:04:08;5.30;99.90
63537;DHT22;49686;51.880;5.632;2023-03-14T08:06:35;5.30;99.90
63537;DHT22;49686;51.880;5.632;2023-03-14T08:09:04;5.30;99.90
63537;DHT22;49686;51.880;5.632;2023-03-14T08:11:30;5.50;99.90
63537;DHT22;49686;51.880;5.632;2023-03-14T08:13:57;5.40;99.90
63537;DHT22;49686;51.880;5.632;2023-03-14T08:16:24;5.50;99.90
63537;DHT22;49686;51.880;5.632;2023-03-14T08:18:51;5.60;99.90
63537;DHT22;49686;51.880;5.632;2023-03-14T08:21:18;5.50;99.90
63537;DHT22;49686;51.880;5.632;2023-03-14T08:23:44;5.60;99.90
63537;DHT22;49686;51.880;5.632;2023-03-14T08:26:13;5.70;99.90
63537;DHT22;49686;51.880;5.632;2023-03-14T08:28:39;5.50;99.90
63537;DHT22;49686;51.880;5.632;2023-03-14T08:31:06;5.60;99.90
63537;DHT22;49686;51.880;5.632;2023-03-14T08:33:34;5.60;99.90
63537;DHT22;49686;51.880;5.632;2023-03-14T08:36:01;5.50;99.90
63537;DHT22;49686;51.880;5.632;2023-03-14T08:38:28;5.60;99.90
63537;DHT22;49686;51.880;5.632;2023-03-14T08:40:56;5.60;99.90
63537;DHT22;49686;51.880;5.632;2023-03-14T08:43:24;5.60;99.90
63537;DHT22;49686;51.880;5.632;2023-03-14T08:45:51;5.50;99.90
63537;DHT22;49686;51.880;5.632;2023-03-14T08:48:18;5.40;99.90
63537;DHT22;49686;51.880;5.632;2023-03-14T08:50:45;4.70;99.90
63537;DHT22;49686;51.880;5.632;2023-03-14T08:53:12;4.40;99.90
63537;DHT22;49686;51.880;5.632;2023-03-14T08:55:39;4.10;99.90
63537;DHT22;49686;51.880;5.632;2023-03-14T08:58:06;4.00;99.90
63537;DHT22;49686;51.880;5.632;2023-03-14T09:00:34;3.90;99.90
63537;DHT22;49686;51.880;5.632;2023-03-14T09:03:01;3.90;99.90
63537;DHT22;49686;51.880;5.632;2023-03-14T09:05:28;4.10;99.90
63537;DHT22;49686;51.880;5.632;2023-03-14T09:07:55;4.10;99.90
63537;DHT22;49686;51.880;5.632;2023-03-14T09:10:22;3.90;99.90
63537;DHT22;49686;51.880;5.632;2023-03-14T09:12:49;4.10;99.90
63537;DHT22;49686;51.880;5.632;2023-03-14T09:15:15;4.40;99.90
63537;DHT22;49686;51.880;5.632;2023-03-14T09:17:44;4.60;99.90
63537;DHT22;49686;51.880;5.632;2023-03-14T09:20:11;4.40;99.90
63537;DHT22;49686;51.880;5.632;2023-03-14T09:22:38;4.40;99.90
63537;DHT22;49686;51.880;5.632;2023-03-14T09:25:05;4.70;99.90
63537;DHT22;49686;51.880;5.632;2023-03-14T09:27:32;4.90;99.90
63537;DHT22;49686;51.880;5.632;2023-03-14T09:29:59;5.10;99.90
63537;DHT22;49686;51.880;5.632;2023-03-14T09:32:26;5.30;99.90
63537;DHT22;49686;51.880;5.632;2023-03-14T09:34:54;5.20;99.90
63537;DHT22;49686;51.880;5.632;2023-03-14T09:37:21;5.30;99.90
63537;DHT22;49686;51.880;5.632;2023-03-14T09:39:48;5.30;99.90
63537;DHT22;49686;51.880;5.632;2023-03-14T09:42:18;5.80;99.90
63537;DHT22;49686;51.880;5.632;2023-03-14T09:44:54;5.60;99.90
63537;DHT22;49686;51.880;5.632;2023-03-14T09:47:23;5.30;99.90
63537;DHT22;49686;51.880;5.632;2023-03-14T09:49:50;5.30;99.90
63537;DHT22;49686;51.880;5.632;2023-03-14T09:52:23;5.30;99.90
63537;DHT22;49686;51.880;5.632;2023-03-14T09:54:52;4.90;99.90
63537;DHT22;49686;51.880;5.632;2023-03-14T09:57:24;4.90;99.90
63537;DHT22;49686;51.880;5.632;2023-03-14T09:59:54;4.90;99.90
63537;DHT22;49686;51.880;5.632;2023-03-14T10:02:24;4.90;99.90
63537;DHT22;49686;51.880;5.632;2023-03-14T10:04:52;5.00;99.90
63537;DHT22;49686;51.880;5.632;2023-03-14T10:07:25;5.10;99.90
63537;DHT22;49686;51.880;5.632;2023-03-14T10:09:53;4.90;99.90
63537;DHT22;49686;51.880;5.632;2023-03-14T10:12:31;5.00;99.90
63537;DHT22;49686;51.880;5.632;2023-03-14T10:15:02;5.00;99.90
63537;DHT22;49686;51.880;5.632;2023-03-14T10:17:38;5.30;99.90
63537;DHT22;49686;51.880;5.632;2023-03-14T10:20:06;5.40;99.90
63537;DHT22;49686;51.880;5.632;2023-03-14T10:22:34;5.30;99.90
63537;DHT22;49686;51.880;5.632;2023-03-14T10:25:04;5.40;99.90
63537;DHT22;49686;51.880;5.632;2023-03-14T10:27:32;5.10;99.90
63537;DHT22;49686;51.880;5.632;2023-03-14T10:30:01;5.20;99.90
63537;DHT22;49686;51.880;5.632;2023-03-14T10:32:32;5.40;99.90
63537;DHT22;49686;51.880;5.632;2023-03-14T10:35:20;5.20;99.90
63537;DHT22;49686;51.880;5.632;2023-03-14T10:37:51;5.20;99.90
63537;DHT22;49686;51.880;5.632;2023-03-14T10:40:20;5.40;99.90
63537;DHT22;49686;51.880;5.632;2023-03-14T10:42:50;5.70;99.90
63537;DHT22;49686;51.880;5.632;2023-03-14T10:45:31;6.00;99.90
63537;DHT22;49686;51.880;5.632;2023-03-14T10:48:04;6.20;99.90
63537;DHT22;49686;51.880;5.632;2023-03-14T10:50:32;5.90;99.90
63537;DHT22;49686;51.880;5.632;2023-03-14T10:53:02;5.80;99.90
63537;DHT22;49686;51.880;5.632;2023-03-14T10:55:39;5.90;99.90
63537;DHT22;49686;51.880;5.632;2023-03-14T10:58:20;5.30;99.90
63537;DHT22;49686;51.880;5.632;2023-03-14T11:00:51;4.40;99.90
63537;DHT22;49686;51.880;5.632;2023-03-14T11:03:21;3.60;99.90
63537;DHT22;49686;51.880;5.632;2023-03-14T11:05:53;3.40;99.90
63537;DHT22;49686;51.880;5.632;2023-03-14T11:08:27;3.50;99.90
63537;DHT22;49686;51.880;5.632;2023-03-14T11:11:07;4.00;99.90
63537;DHT22;49686;51.880;5.632;2023-03-14T11:13:40;4.30;99.90
63537;DHT22;49686;51.880;5.632;2023-03-14T11:16:16;4.70;99.90
63537;DHT22;49686;51.880;5.632;2023-03-14T11:18:54;5.10;99.90
63537;DHT22;49686;51.880;5.632;2023-03-14T11:21:31;5.00;99.90
63537;DHT22;49686;51.880;5.632;2023-03-14T11:24:12;5.30;99.90
63537;DHT22;49686;51.880;5.632;2023-03-14T11:26:46;5.30;99.90
63537;DHT22;49686;51.880;5.632;2023-03-14T11:29:20;5.10;99.90
63537;DHT22;49686;51.880;5.632;2023-03-14T11:31:48;5.00;99.90
63537;DHT22;49686;51.880;5.632;2023-03-14T11:34:17;5.10;99.90
63537;DHT22;49686;51.880;5.632;2023-03-14T11:36:49;4.60;99.90
63537;DHT22;49686;51.880;5.632;2023-03-14T11:39:20;4.60;99.90
63537;DHT22;49686;51.880;5.632;2023-03-14T11:41:48;4.80;99.90
63537;DHT22;49686;51.880;5.632;2023-03-14T11:44:18;5.10;99.90
63537;DHT22;49686;51.880;5.632;2023-03-14T11:46:49;5.00;99.90
63537;DHT22;49686;51.880;5.632;2023-03-14T11:49:27;5.20;99.90
63537;DHT22;49686;51.880;5.632;2023-03-14T11:51:59;5.40;99.90
63537;DHT22;49686;51.880;5.632;2023-03-14T11:54:35;5.40;99.90
63537;DHT22;49686;51.880;5.632;2023-03-14T11:57:09;5.30;99.90
63537;DHT22;49686;51.880;5.632;2023-03-14T11:59:45;5.60;99.90
63537;DHT22;49686;51.880;5.632;2023-03-14T12:02:19;5.50;99.90
63537;DHT22;49686;51.880;5.632;2023-03-14T12:04:54;5.30;99.90
63537;DHT22;49686;51.880;5.632;2023-03-14T12:07:29;5.80;99.90
63537;DHT22;49686;51.880;5.632;2023-03-14T12:10:02;5.90;99.90
63537;DHT22;49686;51.880;5.632;2023-03-14T12:12:30;6.50;99.90
63537;DHT22;49686;51.880;5.632;2023-03-14T12:15:00;6.80;99.90
63537;DHT22;49686;51.880;5.632;2023-03-14T12:17:34;7.20;99.90
63537;DHT22;49686;51.880;5.632;2023-03-14T12:20:04;7.00;99.90
63537;DHT22;49686;51.880;5.632;2023-03-14T12:22:34;7.30;99.90
63537;DHT22;49686;51.880;5.632;2023-03-14T12:25:14;7.70;99.90
63537;DHT22;49686;51.880;5.632;2023-03-14T12:27:47;6.60;99.90
63537;DHT22;49686;51.880;5.632;2023-03-14T12:30:33;6.20;99.90
63537;DHT22;49686;51.880;5.632;2023-03-14T12:33:33;6.40;99.90
63537;DHT22;49686;51.880;5.632;2023-03-14T12:36:04;6.70;99.90
63537;DHT22;49686;51.880;5.632;2023-03-14T12:38:49;6.50;99.90
63537;DHT22;49686;51.880;5.632;2023-03-14T12:41:23;6.80;99.90
63537;DHT22;49686;51.880;5.632;2023-03-14T12:43:52;7.30;99.90
63537;DHT22;49686;51.880;5.632;2023-03-14T12:46:21;7.20;99.90
63537;DHT22;49686;51.880;5.632;2023-03-14T12:48:50;7.00;99.90
63537;DHT22;49686;51.880;5.632;2023-03-14T12:51:21;6.90;99.90
63537;DHT22;49686;51.880;5.632;2023-03-14T12:54:11;7.10;99.90
63537;DHT22;49686;51.880;5.632;2023-03-14T12:56:53;6.90;99.90
63537;DHT22;49686;51.880;5.632;2023-03-14T12:59:30;7.20;99.90
63537;DHT22;49686;51.880;5.632;2023-03-14T13:02:01;6.70;99.90
63537;DHT22;49686;51.880;5.632;2023-03-14T13:04:32;6.40;99.90
63537;DHT22;49686;51.880;5.632;2023-03-14T13:07:11;6.70;99.90
63537;DHT22;49686;51.880;5.632;2023-03-14T13:09:53;7.00;99.90
63537;DHT22;49686;51.880;5.632;2023-03-14T13:12:27;7.00;99.90
63537;DHT22;49686;51.880;5.632;2023-03-14T13:14:59;6.70;99.90
63537;DHT22;49686;51.880;5.632;2023-03-14T13:17:30;6.70;99.90
63537;DHT22;49686;51.880;5.632;2023-03-14T13:20:11;7.00;99.90
63537;DHT22;49686;51.880;5.632;2023-03-14T13:22:46;7.20;99.80
63537;DHT22;49686;51.880;5.632;2023-03-14T13:25:15;7.50;99.90
63537;DHT22;49686;51.880;5.632;2023-03-14T13:27:43;7.50;99.90
63537;DHT22;49686;51.880;5.632;2023-03-14T13:30:21;7.70;99.90
63537;DHT22;49686;51.880;5.632;2023-03-14T13:32:50;7.70;98.80
63537;DHT22;49686;51.880;5.632;2023-03-14T13:35:20;7.80;99.20
63537;DHT22;49686;51.880;5.632;2023-03-14T13:37:52;8.00;99.50
63537;DHT22;49686;51.880;5.632;2023-03-14T13:40:35;7.60;98.40
63537;DHT22;49686;51.880;5.632;2023-03-14T13:43:09;6.90;98.40
63537;DHT22;49686;51.880;5.632;2023-03-14T13:45:45;6.80;98.70
63537;DHT22;49686;51.880;5.632;2023-03-14T13:48:14;6.70;98.30
63537;DHT22;49686;51.880;5.632;2023-03-14T13:50:45;6.60;98.40
63537;DHT22;49686;51.880;5.632;2023-03-14T13:53:12;6.40;97.80
63537;DHT22;49686;51.880;5.632;2023-03-14T13:55:39;6.60;99.20
63537;DHT22;49686;51.880;5.632;2023-03-14T13:58:19;6.60;99.10
63537;DHT22;49686;51.880;5.632;2023-03-14T14:01:04;7.00;98.50
63537;DHT22;49686;51.880;5.632;2023-03-14T14:03:33;7.30;97.30
63537;DHT22;49686;51.880;5.632;2023-03-14T14:06:01;6.70;97.10
63537;DHT22;49686;51.880;5.632;2023-03-14T14:08:28;7.00;97.40
63537;DHT22;49686;51.880;5.632;2023-03-14T14:10:59;6.90;96.80
63537;DHT22;49686;51.880;5.632;2023-03-14T14:13:32;6.40;97.20
63537;DHT22;49686;51.880;5.632;2023-03-14T14:16:02;6.30;96.40
63537;DHT22;49686;51.880;5.632;2023-03-14T14:18:31;6.10;96.60
63537;DHT22;49686;51.880;5.632;2023-03-14T14:20:58;5.60;97.20
63537;DHT22;49686;51.880;5.632;2023-03-14T14:23:29;5.50;98.70
63537;DHT22;49686;51.880;5.632;2023-03-14T14:25:58;5.40;99.40
63537;DHT22;49686;51.880;5.632;2023-03-14T14:28:29;5.40;99.20
63537;DHT22;49686;51.880;5.632;2023-03-14T14:31:03;5.40;99.00
63537;DHT22;49686;51.880;5.632;2023-03-14T14:33:38;5.70;99.00
63537;DHT22;49686;51.880;5.632;2023-03-14T14:36:16;6.20;98.10
63537;DHT22;49686;51.880;5.632;2023-03-14T14:38:52;6.30;98.20
63537;DHT22;49686;51.880;5.632;2023-03-14T14:41:20;6.20;98.50
63537;DHT22;49686;51.880;5.632;2023-03-14T14:43:48;6.00;98.80
63537;DHT22;49686;51.880;5.632;2023-03-14T14:46:21;6.00;99.00
63537;DHT22;49686;51.880;5.632;2023-03-14T14:48:48;6.00;99.90
63537;DHT22;49686;51.880;5.632;2023-03-14T14:51:23;6.00;99.90
63537;DHT22;49686;51.880;5.632;2023-03-14T14:53:59;5.90;99.80
63537;DHT22;49686;51.880;5.632;2023-03-14T14:56:27;6.00;99.90
63537;DHT22;49686;51.880;5.632;2023-03-14T14:58:58;6.00;99.90
63537;DHT22;49686;51.880;5.632;2023-03-14T15:01:31;6.00;99.90
63537;DHT22;49686;51.880;5.632;2023-03-14T15:03:59;5.90;99.90
63537;DHT22;49686;51.880;5.632;2023-03-14T15:06:28;5.60;99.00
63537;DHT22;49686;51.880;5.632;2023-03-14T15:08:55;5.40;99.60
63537;DHT22;49686;51.880;5.632;2023-03-14T15:11:24;5.40;99.20
63537;DHT22;49686;51.880;5.632;2023-03-14T15:13:51;5.50;99.10
63537;DHT22;49686;51.880;5.632;2023-03-14T15:16:21;5.40;98.90
63537;DHT22;49686;51.880;5.632;2023-03-14T15:18:52;5.50;99.50
63537;DHT22;49686;51.880;5.632;2023-03-14T15:21:19;5.40;99.30
63537;DHT22;49686;51.880;5.632;2023-03-14T15:23:46;5.40;99.50
63537;DHT22;49686;51.880;5.632;2023-03-14T15:26:15;5.30;99.70
63537;DHT22;49686;51.880;5.632;2023-03-14T15:28:42;5.20;98.90
63537;DHT22;49686;51.880;5.632;2023-03-14T15:31:10;5.20;98.10
63537;DHT22;49686;51.880;5.632;2023-03-14T15:33:38;5.20;97.60
63537;DHT22;49686;51.880;5.632;2023-03-14T15:36:22;5.20;97.20
63537;DHT22;49686;51.880;5.632;2023-03-14T15:38:48;5.20;97.50
63537;DHT22;49686;51.880;5.632;2023-03-14T15:41:18;5.20;97.70
63537;DHT22;49686;51.880;5.632;2023-03-14T15:43:44;5.10;97.90
63537;DHT22;49686;51.880;5.632;2023-03-14T15:46:12;5.10;98.00
63537;DHT22;49686;51.880;5.632;2023-03-14T15:48:42;5.10;97.80
63537;DHT22;49686;51.880;5.632;2023-03-14T15:51:09;4.90;98.10
63537;DHT22;49686;51.880;5.632;2023-03-14T15:53:37;4.80;98.40
63537;DHT22;49686;51.880;5.632;2023-03-14T15:56:04;4.70;99.40
63537;DHT22;49686;51.880;5.632;2023-03-14T15:58:31;4.70;99.90